首页
METAR-TAF:

METAR-TAF

机场 :

锡拉科加, 阿拉巴马州, 美国

纬度: 33-10-19N, 经度: 086-18-20W, 海拔: 173米

当前天气观测

该预报发布于28分钟前的09:35 UTC
风速6节,风向东转东南
温度 22°C
湿度 88%
气压 1015 hPa
能見度: 16.1公里
散云层高于1600英尺
散云层高于7500英尺
散云层高于8000英尺

METAR: KSCD 260935Z AUTO 11006KT 10SM SCT016 SCT075 SCT080 22/20 A2998 RMK AO2 T02220200

时间: 05:03 (10:03 UTC)


TAF: 丢失

超过4000个机场的气象观测和天气预报(METAR&TAF报告)。

可查询的气象台以黄色和红色小点在地图上表示。

将鼠标移到小点上方,可查看气象台名称。

然后点击查看天气观测和预报。

如需切换地图:点击带黑十字的绿色按钮放大地图;点击带横线的绿色按钮缩小地图;或者点击绿色箭头查看邻近地区的地图。


METAR-TAF: